Terminal Aerodrome Forecast
Issued by NWS Glasgow, MT

Home | Current Version | Previous Version | Text Only | Print | Product List | Glossary On
Versions: 1 2 3 4 5 6 7 8 9 10 11 12 13 14 15 16 17 18 19 20 21
397
FTUS45 KGGW 240532
TAFGGW
TAF
KGGW 240532Z 2406/2506 31008KT P6SM BKN025
     FM240800 32005KT 4SM BR BKN015
     FM241800 31009KT P6SM BKN020
     FM242100 31009KT P6SM BKN010
     FM250400 31006KT 4SM BR BKN015=

USA.gov is the U.S. government's official web portal to all federal, state and local government web resources and services.